Wetterdaten: aktuell Samstag, 24.10.2020 08:20
Datum Zeit Temperatur Bodentemp. Luftfeuchte Luftdruck Niederschlag Windgeschw. Windrichtung Windrichtung Sonnenschein Nieder.dauer Evapotrans. Solarstrahl. Taupunkt Windchill Windböen
24.10.2020 08:20 11,7 °C 11,1 °C 97 % 1007,7 hPa 0,0 l/m² 7,2 km/h (2 Bft) S 180 ° 0 min 0 min 0 mm 7 W/m² 11,2 °C 11,7 °C 12,6 km/h (3 Bft)
24.10.2020 07:20 11,9 °C 11,1 °C 96 % 1007,5 hPa 0,0 l/m² 7,2 km/h (2 Bft) S-SW 202 ° 0 min 0 min 0 mm 0 W/m² 11,3 °C 11,9 °C 12,6 km/h (3 Bft)
24.10.2020 06:20 12,1 °C 11,1 °C 97 % 1007,2 hPa 0,2 l/m² 10,8 km/h (2 Bft) SW 225 ° 0 min 22 min 0 mm 0 W/m² 11,6 °C 12,1 °C 17,9 km/h (3 Bft)
24.10.2020 05:20 12,5 °C 11,7 °C 96 % 1007,1 hPa 0,0 l/m² 12,6 km/h (3 Bft) SW 225 ° 0 min 14 min 0 mm 0 W/m² 11,9 °C 12,5 °C 17,9 km/h (3 Bft)
24.10.2020 04:20 12,6 °C 12,2 °C 97 % 1006,7 hPa 0,0 l/m² 10,8 km/h (2 Bft) SW 225 ° 0 min 0 min 0 mm 0 W/m² 12,1 °C 12,6 °C 21,5 km/h (4 Bft)
24.10.2020 03:20 12,3 °C 12,2 °C 99 % 1007,1 hPa 0,0 l/m² 16,1 km/h (3 Bft) S-SW 202 ° 0 min 0 min 0 mm 0 W/m² 12,1 °C 12,3 °C 25,1 km/h (4 Bft)
24.10.2020 02:20 11,9 °C 11,7 °C 100 % 1007,0 hPa 0,0 l/m² 10,8 km/h (2 Bft) S-SW 202 ° 0 min 0 min 0 mm 0 W/m² 11,9 °C 11,9 °C 12,6 km/h (3 Bft)
24.10.2020 01:20 11,8 °C 11,1 °C 100 % 1007,5 hPa 0,0 l/m² 3,6 km/h (1 Bft) S 180 ° 0 min 0 min 0 mm 0 W/m² 11,8 °C 11,8 °C 7,2 km/h (2 Bft)
24.10.2020 00:20 11,7 °C 11,7 °C 100 % 1007,6 hPa 0,0 l/m² 7,2 km/h (2 Bft) SW 225 ° 0 min 0 min 0 mm 0 W/m² 11,7 °C 11,7 °C 14,4 km/h (3 Bft)
23.10.2020 23:20 10,9 °C 10,6 °C 100 % 1007,7 hPa 0,0 l/m² 9,0 km/h (2 Bft) S 180 ° 0 min 0 min 0 mm 0 W/m² 10,9 °C 10,9 °C 14,4 km/h (3 Bft)
23.10.2020 22:20 10,6 °C 10,0 °C 100 % 1007,7 hPa 0,0 l/m² 5,4 km/h (1 Bft) S 180 ° 0 min 0 min 0 mm 0 W/m² 10,6 °C 10,6 °C 9,0 km/h (2 Bft)
23.10.2020 21:20 10,4 °C 9,4 °C 98 % 1007,7 hPa 0,0 l/m² 1,8 km/h (1 Bft) S-SO 157 ° 0 min 0 min 0 mm 0 W/m² 10,1 °C 10,4 °C 3,6 km/h (1 Bft)
23.10.2020 20:20 9,8 °C 9,4 °C 96 % 1007,8 hPa 0,0 l/m² 7,2 km/h (2 Bft) S-SW 202 ° 0 min 0 min 0 mm 0 W/m² 9,2 °C 8,9 °C 10,8 km/h (2 Bft)
23.10.2020 19:20 10,4 °C 8,9 °C 90 % 1008,2 hPa 0,0 l/m² 0,0 km/h (0 Bft) S 180 ° 0 min 0 min 0 mm 0 W/m² 8,8 °C 10,4 °C 1,8 km/h (1 Bft)
23.10.2020 18:20 11,8 °C 9,4 °C 87 % 1008,1 hPa 0,0 l/m² 3,6 km/h (1 Bft) S-SO 157 ° 28 min 0 min 0 mm 0 W/m² 9,7 °C 11,8 °C 7,2 km/h (2 Bft)
23.10.2020 17:20 12,6 °C 12,2 °C 85 % 1008,2 hPa 0,0 l/m² 3,6 km/h (1 Bft) S 180 ° 12 min 0 min 0 mm 60 W/m² 10,1 °C 12,6 °C 5,4 km/h (1 Bft)
23.10.2020 16:20 13,3 °C 12,8 °C 77 % 1008,7 hPa 0,0 l/m² 3,6 km/h (1 Bft) S-SW 202 ° 32 min 0 min 0 mm 105 W/m² 9,4 °C 13,3 °C 7,2 km/h (2 Bft)
23.10.2020 15:20 12,9 °C 12,8 °C 80 % 1008,6 hPa 0,0 l/m² 9,0 km/h (2 Bft) S-SW 202 ° 31 min 0 min 0 mm 188 W/m² 9,5 °C 12,9 °C 14,4 km/h (3 Bft)
23.10.2020 14:20 12,9 °C 12,8 °C 82 % 1009,2 hPa 0,0 l/m² 9,0 km/h (2 Bft) S 180 ° 24 min 0 min 0 mm 445 W/m² 9,9 °C 12,9 °C 14,4 km/h (3 Bft)
23.10.2020 13:20 13,0 °C 12,8 °C 82 % 1009,3 hPa 0,0 l/m² 7,2 km/h (2 Bft) SW 225 ° 32 min 0 min 0 mm 364 W/m² 10,0 °C 13,0 °C 14,4 km/h (3 Bft)
23.10.2020 12:20 12,3 °C 12,2 °C 85 % 1009,8 hPa 0,0 l/m² 10,8 km/h (2 Bft) S-SW 202 ° 39 min 0 min 0 mm 172 W/m² 9,9 °C 12,3 °C 16,1 km/h (3 Bft)
23.10.2020 11:20 11,1 °C 11,1 °C 93 % 1009,8 hPa 0,0 l/m² 10,8 km/h (2 Bft) S-SW 202 ° 21 min 0 min 0 mm 265 W/m² 10,0 °C 11,1 °C 12,6 km/h (3 Bft)
23.10.2020 10:20 10,9 °C 11,1 °C 96 % 1009,7 hPa 0,0 l/m² 9,0 km/h (2 Bft) SW 225 ° 20 min 0 min 0 mm 47 W/m² 10,3 °C 10,9 °C 16,1 km/h (3 Bft)
23.10.2020 09:20 10,1 °C 10,6 °C 100 % 1009,3 hPa 0,0 l/m² 9,0 km/h (2 Bft) SW 225 ° 1 min 0 min 0 mm 83 W/m² 10,1 °C 10,1 °C 12,6 km/h (3 Bft)
23.10.2020 09:00 9,7 °C 10,0 °C 100 % 1009,3 hPa 0,0 l/m² 7,2 km/h (2 Bft) S-SW 202 ° 0 min 0 min 0 mm 33 W/m² 9,7 °C 8,8 °C 14,4 km/h (3 Bft)
_ Min-Zeit 09:00 19:22 15:01 04:15 - 14:11 - - - - - - 19:49 09:13 17:58
Minimum _ 9,7 °C 8,3 °C 74 % 1006,7 hPa - 0,0 km/h (0 Bft) - - - - - - 8,7 °C 8,1 °C 0,0 km/h (0 Bft)
_ Max-Zeit 15:28 13:24 09:00 10:30 05:22 11:54 - - 09:15 05:07 14:00 13:50 03:31 15:28 03:31
Maximum _ 13,6 °C 13,3 °C 100 % 1009,8 hPa 0,2 l/m² 16,1 km/h
S-SW (3 Bft)
- - 1 min 1 min 0 mm 538 W/m² 12,2 °C 13,6 °C 32,3 km/h
S-SW (5 Bft)
Durchschnitt _ 11,6 °C 11,1 °C 94 % 1008,2 hPa #0,2 l/m² 7,3 km/h (2 Bft) S-SW - #0 min. #36 min. #0,000 mm 6 W/m² 10,5 °C 11,5 °C 12,1 km/h (2 Bft)